Time;durP1;ratioP1;P1;durP2;ratioP2;P2;SDS_P1;SDS_P2;PMS_P1;PMS_P2;Temp;Humidity;BMP_temperature;BMP_pressure;BME280_temperature;BME280_humidity;BME280_pressure;Samples;Min_cycle;Max_cycle;Signal;HPM_P1;HPM_P2
2022/11/16 00:01:39;;;;;;;9.45;6.55;;;;;;;15.56;63.44;99787.44;5014333;28;113984;-73
2022/11/16 00:04:10;;;;;;;9.25;6.60;;;;;;;15.56;63.67;99791.94;5013661;28;123469;-73
2022/11/16 00:06:38;;;;;;;11.32;7.03;;;;;;;15.55;63.70;99790.22;5013545;28;124168;-73
2022/11/16 00:09:21;;;;;;;12.00;7.18;;;;;;;15.54;63.54;99783.19;4993981;28;114188;-73
2022/11/16 00:11:54;;;;;;;9.82;7.05;;;;;;;15.54;63.74;99784.03;4988506;28;113457;-73
2022/11/16 00:14:23;;;;;;;10.60;6.88;;;;;;;15.54;63.78;99793.88;5008114;28;123925;-73
2022/11/16 00:16:51;;;;;;;10.30;6.85;;;;;;;15.53;63.74;99779.66;5011186;28;126129;-73
2022/11/16 00:19:18;;;;;;;11.35;7.60;;;;;;;15.54;63.74;99777.88;5006562;28;115032;-73
2022/11/16 00:21:45;;;;;;;10.57;7.28;;;;;;;15.55;63.75;99779.53;4998317;28;113710;-73
2022/11/16 00:24:15;;;;;;;12.18;7.47;;;;;;;15.55;63.69;99776.88;4993476;28;122541;-72
2022/11/16 00:26:42;;;;;;;10.95;7.38;;;;;;;15.55;63.68;99780.38;5009112;28;123537;-73
2022/11/16 00:29:17;;;;;;;10.95;7.30;;;;;;;15.55;63.92;99784.88;5012884;28;115150;-72
2022/11/16 00:31:46;;;;;;;9.75;7.22;;;;;;;15.56;63.89;99786.59;4986538;28;114764;-73
2022/11/16 00:34:13;;;;;;;10.77;7.30;;;;;;;15.57;63.80;99782.94;5004206;28;123681;-73
2022/11/16 00:36:40;;;;;;;13.63;7.00;;;;;;;15.58;63.80;99779.31;5007526;28;124568;-73
2022/11/16 00:39:12;;;;;;;10.88;7.43;;;;;;;15.56;64.06;99771.41;4990042;28;114245;-73
2022/11/16 00:41:40;;;;;;;11.88;7.85;;;;;;;15.58;63.98;99773.97;5004898;28;114150;-73
2022/11/16 00:44:08;;;;;;;12.02;8.18;;;;;;;15.59;64.16;99780.97;4981379;28;122028;-73
2022/11/16 00:46:36;;;;;;;10.93;7.82;;;;;;;15.60;63.96;99782.69;4988086;28;122011;-73
2022/11/16 00:49:04;;;;;;;10.68;7.82;;;;;;;15.60;63.96;99777.34;4986749;28;114486;-73
2022/11/16 00:51:32;;;;;;;12.68;8.13;;;;;;;15.61;63.92;99773.69;4968075;28;113001;-72
2022/11/16 00:54:00;;;;;;;14.45;8.23;;;;;;;15.62;64.05;99786.06;4998864;28;123038;-73
2022/11/16 00:56:28;;;;;;;11.88;8.00;;;;;;;15.62;64.03;99780.72;4993023;28;122813;-73
2022/11/16 00:58:55;;;;;;;13.20;8.52;;;;;;;15.62;63.97;99780.72;4991968;28;112844;-73
2022/11/16 01:01:22;;;;;;;12.07;8.48;;;;;;;15.62;63.76;99783.41;5011790;28;113997;-73
2022/11/16 01:03:50;;;;;;;12.77;8.85;;;;;;;15.62;63.98;99783.41;4991340;28;123247;-73
2022/11/16 01:06:19;;;;;;;11.95;8.13;;;;;;;15.62;64.01;99788.75;4996080;28;123522;-73
2022/11/16 01:08:46;;;;;;;14.15;8.45;;;;;;;15.62;64.08;99780.72;5004885;28;114714;-73
2022/11/16 01:14:07;;;;;;;12.35;8.70;;;;;;;15.60;64.20;99788.03;5002489;28;123386;-73
2022/11/16 01:16:34;;;;;;;11.15;8.07;;;;;;;15.61;64.32;99784.38;4989188;28;122356;-73
2022/11/16 01:19:02;;;;;;;14.27;8.20;;;;;;;15.62;64.11;99799.41;4989979;28;116019;-73
2022/11/16 01:21:29;;;;;;;11.93;8.27;;;;;;;15.63;64.62;99782.41;4990363;28;114744;-73
2022/11/16 01:23:56;;;;;;;11.90;8.23;;;;;;;15.63;64.31;99777.06;5005089;28;123937;-73
2022/11/16 01:26:24;;;;;;;11.00;7.85;;;;;;;15.66;64.29;99766.16;4988519;28;121884;-73
2022/11/16 01:28:51;;;;;;;11.02;8.18;;;;;;;15.65;64.19;99764.47;4986838;28;113858;-73
2022/11/16 01:31:19;;;;;;;10.63;8.13;;;;;;;15.66;64.28;99760.81;4988918;28;113503;-73
2022/11/16 01:33:48;;;;;;;9.90;7.32;;;;;;;15.65;64.24;99764.47;4990246;28;122355;-74
2022/11/16 01:36:21;;;;;;;9.48;6.65;;;;;;;15.65;64.21;99769.81;4982737;28;123126;-73
2022/11/16 01:38:48;;;;;;;8.73;6.70;;;;;;;15.66;64.14;99766.16;4983503;28;113229;-73
2022/11/16 01:41:23;;;;;;;8.85;6.47;;;;;;;15.66;64.24;99765.31;4982894;28;113901;-73
2022/11/16 01:44:06;;;;;;;7.60;5.93;;;;;;;15.65;64.32;99759.13;4990382;28;122978;-73
2022/11/16 01:46:38;;;;;;;10.67;5.97;;;;;;;15.65;64.40;99756.47;4995076;28;123604;-73
2022/11/16 01:49:12;;;;;;;10.18;5.88;;;;;;;15.65;64.17;99751.13;4988132;28;113732;-73
2022/11/16 01:51:42;;;;;;;7.40;5.40;;;;;;;15.64;64.12;99741.41;5003579;28;114131;-73
2022/11/16 01:54:12;;;;;;;8.05;5.45;;;;;;;15.63;64.13;99734.38;4980737;28;123573;-73
2022/11/16 01:56:51;;;;;;;6.78;5.22;;;;;;;15.62;64.01;99727.34;4986014;28;122876;-73
2022/11/16 01:59:29;;;;;;;7.95;5.28;;;;;;;15.61;64.05;99741.66;4983137;28;113750;-73
2022/11/16 02:02:01;;;;;;;8.98;5.93;;;;;;;15.60;64.09;99739.97;4990973;28;114000;-73
2022/11/16 02:04:29;;;;;;;7.85;5.93;;;;;;;15.58;64.08;99724.09;5006313;28;124257;-73
2022/11/16 02:07:29;;;;;;;8.07;6.00;;;;;;;15.58;64.18;99726.75;5007873;28;123943;-73
2022/11/16 02:10:24;;;;;;;8.32;5.95;;;;;;;15.57;64.12;99726.88;4990843;28;114385;-73
2022/11/16 02:13:10;;;;;;;7.53;5.57;;;;;;;15.57;64.42;99724.22;5003017;28;114496;-73
2022/11/16 02:15:57;;;;;;;8.35;5.95;;;;;;;15.55;64.13;99726.16;4990113;28;123638;-73
2022/11/16 02:18:49;;;;;;;;;;;;;;;15.54;63.94;99724.50;4992313;28;123399;-73
2022/11/16 02:21:38;;;;;;;9.80;6.40;;;;;;;15.53;64.18;99722.78;4981324;28;113758;-73
2022/11/16 02:24:28;;;;;;;9.07;6.60;;;;;;;15.54;64.40;99724.50;4997753;28;113561;-73
2022/11/16 02:27:33;;;;;;;8.00;6.05;;;;;;;15.53;64.18;99718.28;4989463;28;123640;-73
2022/11/16 02:30:01;;;;;;;9.35;6.38;;;;;;;15.54;64.25;99713.81;5016297;28;124230;-73
2022/11/16 02:32:35;;;;;;;8.80;6.85;;;;;;;15.55;64.38;99704.81;4989652;28;112771;-73
2022/11/16 02:35:05;;;;;;;10.02;6.68;;;;;;;15.54;64.33;99713.81;5001826;28;115205;-73
2022/11/16 02:37:37;;;;;;;10.10;7.13;;;;;;;15.55;64.39;99712.81;4998799;28;123983;-73
2022/11/16 02:40:09;;;;;;;10.15;6.88;;;;;;;15.56;64.38;99711.88;4989073;28;124099;-73
2022/11/16 02:42:51;;;;;;;10.00;6.90;;;;;;;15.57;64.52;99705.53;4994142;28;114012;-73
2022/11/16 02:45:26;;;;;;;11.80;6.82;;;;;;;15.57;64.38;99698.38;5006635;28;113037;-74
2022/11/16 02:48:05;;;;;;;11.10;7.15;;;;;;;15.58;64.43;99710.75;4993925;28;123006;-73
2022/11/16 02:50:34;;;;;;;8.98;7.07;;;;;;;15.58;64.44;99705.41;4993104;28;122998;-73
2022/11/16 02:53:02;;;;;;;10.35;7.05;;;;;;;15.58;64.67;99699.22;5007897;28;113740;-73
2022/11/16 02:55:34;;;;;;;10.80;7.35;;;;;;;15.58;64.55;99699.22;4996744;28;113936;-73
2022/11/16 02:58:05;;;;;;;8.27;6.72;;;;;;;15.59;64.56;99695.56;5007186;28;121937;-73
2022/11/16 03:01:00;;;;;;;10.20;6.88;;;;;;;15.58;64.67;99697.41;4989955;28;122048;-73
2022/11/16 03:03:39;;;;;;;10.47;7.27;;;;;;;15.58;64.67;99699.22;5004309;28;114150;-73
2022/11/16 03:06:13;;;;;;;10.52;7.43;;;;;;;15.59;64.72;99706.25;5009903;28;114836;-73
2022/11/16 03:08:46;;;;;;;8.63;6.97;;;;;;;15.62;64.68;99706.00;4993706;28;122621;-73
2022/11/16 03:14:06;;;;;;;10.75;7.60;;;;;;;15.62;64.79;99700.66;5005463;28;112729;-72
2022/11/16 03:16:39;;;;;;;11.32;7.45;;;;;;;15.64;64.63;99704.03;4997537;28;112458;-73
2022/11/16 03:19:10;;;;;;;10.02;7.00;;;;;;;15.64;64.62;99698.69;5010903;28;124156;-73
2022/11/16 03:22:03;;;;;;;10.23;7.32;;;;;;;15.67;64.80;99714.47;4992303;28;123196;-73
2022/11/16 03:24:35;;;;;;;10.05;7.10;;;;;;;15.70;64.64;99719.53;4990177;28;113684;-73
2022/11/16 03:27:26;;;;;;;11.43;7.60;;;;;;;15.71;64.71;99713.22;5003605;28;113758;-73
2022/11/16 03:30:03;;;;;;;11.02;7.38;;;;;;;15.70;64.72;99703.50;4991867;28;122729;-73
2022/11/16 03:32:40;;;;;;;10.35;6.88;;;;;;;15.70;64.88;99703.50;4986282;28;122968;-73
2022/11/16 03:35:25;;;;;;;9.63;6.70;;;;;;;15.71;64.85;99715.91;4997175;28;113556;-73
2022/11/16 03:37:55;;;;;;;9.93;6.68;;;;;;;15.72;64.67;99709.56;4997352;28;113091;-73
2022/11/16 03:40:27;;;;;;;8.30;6.57;;;;;;;15.73;64.61;99723.78;4987560;28;123154;-73
2022/11/16 03:42:58;;;;;;;8.90;6.45;;;;;;;15.71;64.69;99715.91;4986864;28;122280;-73
2022/11/16 03:45:25;;;;;;;8.55;6.25;;;;;;;15.70;64.84;99719.53;4992736;28;113748;-73
2022/11/16 03:47:53;;;;;;;10.38;6.47;;;;;;;15.70;64.79;99724.88;4985508;28;113425;-73
2022/11/16 03:50:21;;;;;;;8.73;6.65;;;;;;;15.70;64.99;99735.56;4980423;28;123478;-73
2022/11/16 03:52:48;;;;;;;8.25;6.32;;;;;;;15.71;64.78;99726.56;4990212;28;122384;-73
2022/11/16 03:55:15;;;;;;;7.60;6.15;;;;;;;15.71;64.83;99734.59;5004126;28;113874;-73
2022/11/16 03:57:44;;;;;;;7.40;5.90;;;;;;;15.70;64.77;99740.88;5005695;28;114375;-73
2022/11/16 04:00:11;;;;;;;9.43;6.00;;;;;;;15.70;64.81;99746.22;5009481;28;124748;-73
2022/11/16 04:02:42;;;;;;;11.05;6.35;;;;;;;15.71;64.66;99753.28;4984859;28;122963;-73
2022/11/16 04:24:50;;;;;;;7.40;5.22;;;;;;;15.57;64.44;99745.56;5002659;28;123451;-71
2022/11/16 04:30:07;;;;;;;7.47;4.68;;;;;;;15.55;64.54;99752.84;5003464;28;114917;-71
2022/11/16 04:38:08;;;;;;;5.47;4.13;;;;;;;15.51;64.57;99762.09;4993498;28;112866;-72
2022/11/16 04:40:36;;;;;;;6.38;4.10;;;;;;;15.52;64.59;99779.78;4988121;28;113685;-72
2022/11/16 04:43:04;;;;;;;4.60;3.92;;;;;;;15.48;64.48;99767.69;4984128;28;124336;-70
2022/11/16 04:48:24;;;;;;;4.63;2.88;;;;;;;15.44;64.49;99787.59;5003850;28;114858;-71
2022/11/16 04:50:53;;;;;;;4.53;2.70;;;;;;;15.42;64.31;99779.69;4982205;28;114784;-71
2022/11/16 04:53:22;;;;;;;3.35;2.70;;;;;;;15.40;64.04;99788.81;4994017;28;123237;-71
2022/11/16 04:55:58;;;;;;;3.33;2.47;;;;;;;15.37;64.13;99788.09;4970325;28;121903;-71
2022/11/16 04:58:28;;;;;;;5.00;2.40;;;;;;;15.36;64.07;99783.72;4989243;28;114304;-71
2022/11/16 05:00:55;;;;;;;3.38;2.13;;;;;;;15.32;63.88;99784.97;4990042;28;113296;-71
2022/11/16 05:03:22;;;;;;;5.47;1.98;;;;;;;15.29;64.04;99795.03;5008609;28;123574;-71
2022/11/16 05:05:49;;;;;;;2.08;1.80;;;;;;;15.25;63.83;99794.44;4977438;28;123225;-71
2022/11/16 05:08:16;;;;;;;2.67;1.55;;;;;;;15.21;63.75;99797.47;4993389;28;115773;-71
2022/11/16 05:10:50;;;;;;;3.63;1.70;;;;;;;15.17;63.75;99796.88;4985896;28;112548;-71
2022/11/16 05:13:17;;;;;;;3.90;1.58;;;;;;;15.14;63.83;99791.78;4988394;28;123897;-71
2022/11/16 05:15:45;;;;;;;4.18;1.80;;;;;;;15.10;63.89;99795.69;4987431;28;123838;-71
2022/11/16 05:18:12;;;;;;;4.40;1.52;;;;;;;15.07;63.71;99801.25;5008656;28;114847;-71
2022/11/16 05:26:14;;;;;;;4.88;1.80;;;;;;;14.93;63.78;99808.53;4984648;28;122314;-71
2022/11/16 05:28:41;;;;;;;2.97;1.50;;;;;;;14.93;63.66;99807.69;4991475;28;114192;-71
2022/11/16 05:31:10;;;;;;;5.47;1.50;;;;;;;14.91;63.82;99818.47;4990768;28;112293;-71
2022/11/16 05:33:37;;;;;;;5.43;1.40;;;;;;;14.90;63.76;99816.81;5005669;28;123169;-71
2022/11/16 05:36:05;;;;;;;4.80;1.52;;;;;;;14.89;63.79;99820.41;4990088;28;123036;-71
2022/11/16 05:38:32;;;;;;;4.13;1.73;;;;;;;14.90;63.82;99822.13;4990109;28;114062;-71
2022/11/16 05:41:00;;;;;;;5.10;1.65;;;;;;;14.90;63.81;99827.47;4973527;28;115315;-71
2022/11/16 05:43:28;;;;;;;2.72;1.52;;;;;;;14.91;63.70;99818.47;5009842;28;122760;-71
2022/11/16 05:46:04;;;;;;;7.57;1.92;;;;;;;14.91;63.67;99818.47;4989647;28;123092;-71
2022/11/16 05:48:32;;;;;;;5.13;1.88;;;;;;;14.90;63.50;99808.81;4997281;28;114086;-72
2022/11/16 05:50:59;;;;;;;3.28;1.70;;;;;;;14.88;63.49;99813.41;4992811;28;112831;-74
2022/11/16 05:53:31;;;;;;;4.03;2.03;;;;;;;14.87;63.57;99803.69;4979164;28;123185;-72
2022/11/16 05:55:58;;;;;;;2.40;1.60;;;;;;;14.85;63.36;99802.97;4996586;28;122964;-71
2022/11/16 05:58:27;;;;;;;4.80;1.98;;;;;;;14.84;63.52;99805.75;4995877;28;113294;-71
2022/11/16 06:00:54;;;;;;;3.80;1.80;;;;;;;14.79;63.31;99806.13;4989612;28;111971;-72
2022/11/16 06:03:21;;;;;;;6.13;1.80;;;;;;;14.76;63.24;99809.88;4986938;28;123886;-72
2022/11/16 06:05:52;;;;;;;3.97;1.75;;;;;;;14.72;63.13;99812.91;4994881;28;123269;-71
2022/11/16 06:08:19;;;;;;;3.10;1.70;;;;;;;14.67;63.28;99812.44;4995019;28;113450;-71
2022/11/16 06:10:49;;;;;;;5.80;1.80;;;;;;;14.64;63.10;99810.03;4999716;28;113046;-71
2022/11/16 06:13:16;;;;;;;3.17;1.75;;;;;;;14.58;62.92;99825.53;4986556;28;122410;-71
2022/11/16 06:15:44;;;;;;;4.93;1.98;;;;;;;14.55;63.03;99828.38;4997838;28;123229;-71
2022/11/16 06:18:17;;;;;;;4.95;1.77;;;;;;;14.51;62.97;99837.59;4998472;28;112963;-72
2022/11/16 06:20:46;;;;;;;5.50;1.75;;;;;;;14.46;63.08;99839.75;4994247;28;111704;-72
2022/11/16 06:23:13;;;;;;;3.85;1.67;;;;;;;14.42;62.90;99838.28;4995816;28;123670;-72
2022/11/16 06:25:41;;;;;;;5.95;1.88;;;;;;;14.38;62.87;99847.50;4974709;28;122935;-71
2022/11/16 06:28:09;;;;;;;6.22;1.85;;;;;;;14.34;62.85;99851.38;4999757;28;113414;-71
2022/11/16 06:30:39;;;;;;;6.10;2.05;;;;;;;14.29;62.75;99853.53;5006412;28;114734;-71
2022/11/16 06:33:07;;;;;;;6.63;1.95;;;;;;;14.24;62.82;99850.34;4986163;28;122621;-72
2022/11/16 06:35:34;;;;;;;4.35;2.00;;;;;;;14.18;62.67;99857.88;5007570;28;123945;-72
2022/11/16 06:38:04;;;;;;;4.47;2.10;;;;;;;14.13;62.81;99857.34;4998360;28;113438;-71
2022/11/16 06:40:31;;;;;;;3.97;2.10;;;;;;;14.07;62.65;99855.16;5008451;28;113982;-71
2022/11/16 06:43:01;;;;;;;6.70;2.40;;;;;;;14.03;62.86;99864.31;4986787;28;124861;-71
2022/11/16 06:45:28;;;;;;;5.25;2.03;;;;;;;13.98;62.85;99861.19;4991376;28;122884;-72
2022/11/16 06:47:58;;;;;;;7.13;2.33;;;;;;;13.94;62.70;99873.03;4985984;28;113363;-72
2022/11/16 06:50:26;;;;;;;4.00;2.35;;;;;;;13.89;62.89;99872.53;4994578;28;113500;-72
2022/11/16 06:52:53;;;;;;;5.40;2.45;;;;;;;13.83;62.83;99869.34;4986545;28;123615;-72
2022/11/16 06:55:21;;;;;;;4.40;2.13;;;;;;;13.80;62.92;99874.88;4980367;28;123593;-73
2022/11/16 06:57:48;;;;;;;3.75;2.25;;;;;;;13.76;62.96;99884.06;5002442;28;114231;-73
2022/11/16 07:00:17;;;;;;;5.78;2.35;;;;;;;13.72;62.84;99887.91;5006844;28;113658;-72
2022/11/16 07:02:50;;;;;;;4.70;2.30;;;;;;;13.68;63.05;99891.78;4998813;28;122970;-72
2022/11/16 07:05:18;;;;;;;8.23;2.33;;;;;;;13.64;63.02;99890.31;4982144;28;122922;-73
2022/11/16 07:07:46;;;;;;;5.63;2.40;;;;;;;13.60;63.18;99888.84;4993622;28;114292;-73
2022/11/16 07:10:14;;;;;;;4.88;2.20;;;;;;;13.56;63.09;99890.00;4984869;28;113249;-72
2022/11/16 07:12:42;;;;;;;6.20;2.22;;;;;;;13.53;63.14;99899.06;4982319;28;123495;-73
2022/11/16 07:15:10;;;;;;;8.80;2.72;;;;;;;13.50;63.25;99893.09;4979041;28;122387;-73
2022/11/16 07:17:40;;;;;;;5.22;2.78;;;;;;;13.45;63.15;99901.44;4994728;28;114908;-72
2022/11/16 07:20:08;;;;;;;8.57;2.80;;;;;;;13.43;63.27;99898.88;5008420;28;113327;-72
2022/11/16 07:22:36;;;;;;;5.32;2.67;;;;;;;13.41;63.46;99894.59;4986926;28;122355;-72
2022/11/16 07:25:04;;;;;;;9.43;2.97;;;;;;;13.40;63.50;99901.75;5005290;28;123691;-73
2022/11/16 07:27:31;;;;;;;8.45;2.92;;;;;;;13.39;63.33;99901.84;5007801;28;112183;-72
2022/11/16 07:29:59;;;;;;;5.95;2.80;;;;;;;13.36;63.46;99908.25;4995724;28;111689;-72
2022/11/16 07:32:57;;;;;;;7.82;3.20;;;;;;;13.32;63.49;99911.25;4994764;28;123507;-73
2022/11/16 07:35:44;;;;;;;4.25;2.63;;;;;;;13.32;63.52;99917.41;5007131;28;122246;-72
2022/11/16 07:38:12;;;;;;;6.97;2.70;;;;;;;13.30;63.60;99908.69;5016583;28;114494;-75
2022/11/16 07:40:45;;;;;;;6.22;3.00;;;;;;;13.29;63.59;99916.75;4977638;28;113523;-73
2022/11/16 07:43:15;;;;;;;7.03;3.22;;;;;;;13.29;63.38;99922.91;4992251;28;123429;-73
2022/11/16 07:46:15;;;;;;;9.10;2.53;;;;;;;13.26;63.58;99920.50;4982836;28;123128;-72
2022/11/16 07:49:03;;;;;;;6.28;2.92;;;;;;;13.25;63.64;99926.75;4986144;28;112790;-72
2022/11/16 07:51:53;;;;;;;9.73;2.75;;;;;;;13.24;63.76;99925.91;4992117;28;113248;-72
2022/11/16 07:54:56;;;;;;;7.63;2.80;;;;;;;13.24;63.75;99930.34;4993855;28;124010;-72
2022/11/16 07:57:25;;;;;;;8.10;2.60;;;;;;;13.24;63.89;99935.66;4986070;28;123909;-73
2022/11/16 07:59:55;;;;;;;7.38;2.80;;;;;;;13.24;63.97;99935.66;4998477;28;112706;-72
2022/11/16 08:02:22;;;;;;;8.38;2.72;;;;;;;13.26;63.96;99939.09;4982432;28;113247;-72
2022/11/16 08:04:50;;;;;;;9.40;3.00;;;;;;;13.25;63.91;99937.38;4979705;28;123778;-73
2022/11/16 08:07:22;;;;;;;8.02;2.70;;;;;;;13.26;63.88;99947.09;4985523;28;122444;-72
2022/11/16 08:09:54;;;;;;;7.13;2.60;;;;;;;13.26;63.96;99944.41;5003038;28;114864;-72
2022/11/16 08:12:21;;;;;;;6.47;2.45;;;;;;;13.27;63.94;99951.41;5019881;28;114664;-72
2022/11/16 08:14:49;;;;;;;11.27;2.50;;;;;;;13.27;64.02;99950.59;4983128;28;122219;-72
2022/11/16 08:17:16;;;;;;;8.43;2.53;;;;;;;13.28;63.98;99953.13;4979630;28;123729;-72
2022/11/16 08:19:43;;;;;;;8.05;2.55;;;;;;;13.30;63.93;99956.56;5009266;28;112586;-72
2022/11/16 08:22:13;;;;;;;5.88;2.20;;;;;;;13.31;63.88;99963.56;5006452;28;113179;-72
2022/11/16 08:24:41;;;;;;;8.40;2.40;;;;;;;13.33;63.81;99966.97;5001804;28;122674;-72
2022/11/16 08:27:08;;;;;;;6.50;2.22;;;;;;;13.34;63.76;99958.03;5001176;28;123251;-72
2022/11/16 08:29:35;;;;;;;10.48;2.60;;;;;;;13.35;63.88;99961.53;5005073;28;114673;-72
2022/11/16 08:32:05;;;;;;;11.25;2.67;;;;;;;13.36;63.73;99961.44;4982530;28;112603;-72
2022/11/16 08:34:33;;;;;;;8.52;2.42;;;;;;;13.38;63.74;99962.19;4995461;28;125817;-72
2022/11/16 08:37:00;;;;;;;5.38;2.05;;;;;;;13.39;63.95;99961.25;4996979;28;124179;-72
2022/11/16 08:39:36;;;;;;;8.30;2.42;;;;;;;13.41;63.93;99961.97;4976678;28;113883;-72
2022/11/16 08:42:03;;;;;;;6.40;2.10;;;;;;;13.43;63.85;99957.41;4980409;28;112862;-72
2022/11/16 08:44:31;;;;;;;10.55;2.70;;;;;;;13.44;63.81;99959.06;4977167;28;122806;-72
2022/11/16 08:47:02;;;;;;;7.28;2.13;;;;;;;13.48;63.76;99964.19;4977281;28;123097;-72
2022/11/16 08:49:38;;;;;;;9.60;2.60;;;;;;;13.50;63.83;99967.59;5000475;28;97104;-72
2022/11/16 08:52:06;;;;;;;9.18;2.60;;;;;;;13.52;63.83;99971.00;4981884;28;113157;-72
2022/11/16 08:54:34;;;;;;;8.63;2.45;;;;;;;13.55;63.45;99970.78;4983766;28;122978;-72
2022/11/16 08:57:01;;;;;;;9.40;2.47;;;;;;;13.56;63.74;99980.44;4979287;28;123331;-72
2022/11/16 08:59:30;;;;;;;12.18;2.40;;;;;;;13.58;63.63;99975.88;4982297;28;114242;-72
2022/11/16 09:02:04;;;;;;;7.95;2.30;;;;;;;13.61;63.75;99980.97;5009499;28;113816;-72
2022/11/16 09:04:31;;;;;;;9.20;2.30;;;;;;;13.62;63.84;99988.00;4999938;28;124102;-72
2022/11/16 09:07:03;;;;;;;7.53;2.30;;;;;;;13.65;63.66;99982.44;5013537;28;124437;-72
2022/11/16 09:09:30;;;;;;;8.85;2.30;;;;;;;13.67;63.60;99985.84;4993923;28;113647;-72
2022/11/16 09:11:57;;;;;;;5.97;2.33;;;;;;;13.71;63.67;99987.34;4980624;28;113284;-71
2022/11/16 09:14:26;;;;;;;12.02;2.35;;;;;;;13.76;63.57;99990.50;5005055;28;124804;-72
2022/11/16 09:16:53;;;;;;;7.38;2.00;;;;;;;13.78;63.62;99983.25;5011250;28;123812;-72
2022/11/16 09:19:20;;;;;;;9.88;2.45;;;;;;;13.80;63.43;99986.66;4986886;28;114110;-71
2022/11/16 09:21:48;;;;;;;9.68;2.00;;;;;;;13.82;63.52;99990.09;4994934;28;113892;-72
2022/11/16 09:24:16;;;;;;;7.20;1.55;;;;;;;13.85;63.48;99988.16;5006985;28;124323;-72
2022/11/16 09:26:43;;;;;;;11.38;2.10;;;;;;;13.88;63.32;99990.59;4974927;28;123060;-72
2022/11/16 09:29:13;;;;;;;9.18;2.28;;;;;;;13.93;63.33;99996.44;4994548;28;114602;-71
2022/11/16 09:31:40;;;;;;;8.45;2.17;;;;;;;13.97;63.43;100003.22;4994215;28;114039;-72
2022/11/16 09:34:08;;;;;;;6.22;1.88;;;;;;;14.02;63.39;99995.75;4977225;28;123104;-72
2022/11/16 09:36:35;;;;;;;6.10;1.80;;;;;;;14.06;63.36;99999.91;5012279;28;123541;-72
2022/11/16 09:39:02;;;;;;;7.28;1.83;;;;;;;14.11;63.32;99994.22;4998443;28;113118;-71
2022/11/16 09:42:13;;;;;;;12.55;2.22;;;;;;;14.13;62.97;99998.50;5015600;28;113492;-72
2022/11/16 09:44:51;;;;;;;7.28;2.22;;;;;;;14.19;62.93;99998.03;4996130;28;123954;-72
2022/11/16 09:47:21;;;;;;;5.28;1.65;;;;;;;14.23;62.83;99997.81;4996393;28;123183;-72
2022/11/16 09:49:53;;;;;;;6.40;1.70;;;;;;;14.24;62.84;100000.38;4993973;28;114351;-71
2022/11/16 09:52:38;;;;;;;6.28;1.60;;;;;;;14.28;62.88;100000.97;4995156;28;115028;-71
2022/11/16 09:55:18;;;;;;;7.72;1.92;;;;;;;14.32;62.73;100007.78;4977471;28;122254;-72
2022/11/16 09:57:46;;;;;;;4.70;1.60;;;;;;;14.38;62.81;100007.31;4977122;28;124634;-72
2022/11/16 10:00:19;;;;;;;6.95;1.92;;;;;;;14.42;62.57;100006.13;4995637;28;113356;-71
2022/11/16 10:02:59;;;;;;;10.95;2.25;;;;;;;14.46;62.70;100004.94;5023572;28;113788;-71
2022/11/16 10:05:39;;;;;;;8.57;2.22;;;;;;;14.51;62.77;100013.44;4994569;28;126051;-71
2022/11/16 10:08:16;;;;;;;6.47;2.13;;;;;;;14.57;62.53;100002.34;5000665;28;124616;-71
2022/11/16 10:11:15;;;;;;;11.88;2.50;;;;;;;14.61;62.53;100013.63;4999394;28;114030;-71
2022/11/16 10:14:20;;;;;;;7.40;2.70;;;;;;;14.63;62.30;100016.19;4992177;28;114137;-71
2022/11/16 10:17:03;;;;;;;10.07;2.60;;;;;;;14.65;62.30;100003.59;4992799;28;123733;-71
2022/11/16 10:19:39;;;;;;;11.40;3.00;;;;;;;14.68;62.11;100009.53;4977547;28;123496;-74
2022/11/16 10:22:25;;;;;;;9.70;2.78;;;;;;;14.72;62.16;100010.16;4995769;28;113500;-71
2022/11/16 10:24:56;;;;;;;7.28;2.28;;;;;;;14.77;62.00;100003.50;5007685;28;113627;-71
2022/11/16 10:27:47;;;;;;;8.85;2.63;;;;;;;14.81;61.78;100004.13;5025709;27;123836;-71
2022/11/16 10:30:19;;;;;;;8.35;2.78;;;;;;;14.86;61.63;100003.75;4992695;28;123922;-72
2022/11/16 10:32:52;;;;;;;9.55;2.40;;;;;;;14.89;61.48;100001.72;4994081;28;113948;-72
2022/11/16 10:35:38;;;;;;;9.27;2.35;;;;;;;14.92;61.46;100004.16;5005868;28;113371;-71
2022/11/16 10:38:13;;;;;;;7.72;2.28;;;;;;;14.96;61.16;100002.94;4999438;28;124042;-71
2022/11/16 10:40:48;;;;;;;8.40;2.50;;;;;;;15.01;61.11;99994.59;4996424;28;125177;-71
2022/11/16 10:43:17;;;;;;;9.07;2.40;;;;;;;15.05;60.99;100001.41;4999928;28;115225;-71
2022/11/16 10:45:59;;;;;;;8.23;2.30;;;;;;;15.07;60.70;100009.25;5013414;28;114356;-71
2022/11/16 10:49:00;;;;;;;5.82;1.83;;;;;;;15.09;60.65;99997.53;4990127;28;123349;-71
2022/11/16 10:51:27;;;;;;;8.90;2.15;;;;;;;15.15;60.56;99998.88;5029814;28;124308;-71
2022/11/16 10:53:55;;;;;;;6.82;2.15;;;;;;;15.21;60.74;100000.22;5022742;28;113618;-71
2022/11/16 10:56:36;;;;;;;8.70;2.10;;;;;;;15.24;60.49;99998.16;5017296;28;113129;-72
2022/11/16 10:59:06;;;;;;;11.07;2.20;;;;;;;15.28;60.42;99994.25;5006223;28;124162;-71
2022/11/16 11:01:38;;;;;;;9.45;2.47;;;;;;;15.32;60.06;99998.38;5025285;28;124066;-71
2022/11/16 11:04:17;;;;;;;5.90;1.88;;;;;;;15.37;59.85;99987.38;5009129;28;114605;-71
2022/11/16 11:06:46;;;;;;;5.78;1.80;;;;;;;15.41;59.96;99985.28;5019223;28;113439;-70
2022/11/16 11:09:29;;;;;;;5.93;1.83;;;;;;;15.46;59.85;99983.09;4992230;28;123448;-71
2022/11/16 11:12:37;;;;;;;5.28;1.63;;;;;;;15.50;59.91;99985.44;5009818;28;124123;-71
2022/11/16 11:15:10;;;;;;;6.55;1.77;;;;;;;15.56;59.80;99981.41;5007612;28;114884;-71
2022/11/16 11:17:44;;;;;;;6.25;1.80;;;;;;;15.60;59.59;99974.84;4983780;28;113505;-74
2022/11/16 11:20:13;;;;;;;7.70;1.63;;;;;;;15.65;59.16;99978.03;5008083;28;124101;-71
2022/11/16 11:23:11;;;;;;;7.22;2.00;;;;;;;15.68;59.47;99972.41;5005514;28;124278;-71
2022/11/16 11:25:47;;;;;;;5.35;1.73;;;;;;;15.74;59.38;99971.09;5004506;28;113957;-74
2022/11/16 11:28:25;;;;;;;8.90;2.20;;;;;;;15.80;59.37;99970.59;4983995;28;113651;-71
2022/11/16 11:31:02;;;;;;;10.98;1.95;;;;;;;15.82;58.89;99978.50;4978620;28;124353;-71
2022/11/16 11:33:36;;;;;;;6.55;1.45;;;;;;;15.84;58.86;99971.19;4985310;28;124831;-71
2022/11/16 11:36:09;;;;;;;7.00;1.42;;;;;;;15.86;58.75;99969.25;5010058;28;115086;-71
2022/11/16 11:38:58;;;;;;;7.65;1.80;;;;;;;15.85;58.62;99968.41;5008081;28;115303;-71
2022/11/16 11:41:41;;;;;;;7.30;1.45;;;;;;;15.88;58.38;99961.97;5008737;28;124735;-71
2022/11/16 11:44:16;;;;;;;4.47;1.58;;;;;;;15.88;58.54;99961.97;4996049;28;122817;-71
2022/11/16 11:46:53;;;;;;;7.13;1.33;;;;;;;15.93;58.50;99954.44;4987586;28;113663;-73
2022/11/16 11:49:48;;;;;;;5.80;1.40;;;;;;;15.99;58.37;99953.09;4992047;28;114031;-73
2022/11/16 11:52:21;;;;;;;5.05;1.15;;;;;;;16.03;58.29;99950.03;4981523;28;123571;-73
2022/11/16 11:54:52;;;;;;;4.57;1.40;;;;;;;16.07;58.25;99951.50;4991841;28;123747;-73
2022/11/16 11:57:22;;;;;;;4.78;1.40;;;;;;;16.14;58.15;99946.47;4989278;28;114237;-73
2022/11/16 11:59:52;;;;;;;4.32;1.35;;;;;;;16.18;57.95;99958.63;4999588;28;113427;-73
2022/11/16 12:03:02;;;;;;;7.05;1.42;;;;;;;16.20;57.72;99950.47;5001509;28;124056;-73
2022/11/16 12:06:00;;;;;;;6.63;1.40;;;;;;;16.19;57.70;99943.44;4983662;28;123303;-73
2022/11/16 12:08:54;;;;;;;8.00;1.40;;;;;;;16.18;57.60;99942.59;4988430;28;114116;-74
2022/11/16 12:11:46;;;;;;;4.43;1.58;;;;;;;16.18;57.36;99947.06;4988430;28;114374;-72
2022/11/16 12:14:35;;;;;;;6.15;1.50;;;;;;;16.19;57.41;99946.09;5014564;27;123212;-71
2022/11/16 12:17:19;;;;;;;6.43;1.42;;;;;;;16.20;57.30;99945.13;4996971;28;122139;-71
2022/11/16 12:20:07;;;;;;;3.63;1.20;;;;;;;16.20;57.17;99934.44;5004871;28;113668;-71
2022/11/16 12:22:34;;;;;;;5.97;1.70;;;;;;;16.20;57.32;99934.44;5000547;27;111641;-71
2022/11/16 12:25:16;;;;;;;6.03;1.98;;;;;;;16.18;57.05;99929.25;4992697;28;123889;-71
2022/11/16 12:28:16;;;;;;;7.70;1.60;;;;;;;16.19;56.98;99927.41;4985808;28;124534;-71
2022/11/16 12:31:19;;;;;;;7.00;1.55;;;;;;;16.19;57.18;99925.56;4994913;28;115234;-71
2022/11/16 12:34:03;;;;;;;5.82;1.73;;;;;;;16.22;57.01;99916.44;4991421;28;114217;-71